createdAt,value
2018-05-11T01:01:13.999Z,94.40
2018-05-11T01:03:41.494Z,94.30
2018-05-11T01:06:08.999Z,93.80
2018-05-11T01:08:36.504Z,93.60
2018-05-11T01:11:04.016Z,93.90
2018-05-11T01:13:31.505Z,93.30
2018-05-11T01:15:59.012Z,93.50
2018-05-11T01:18:27.270Z,93.20
2018-05-11T01:20:55.530Z,92.80
2018-05-11T01:23:23.752Z,92.80
2018-05-11T01:25:51.250Z,92.30
2018-05-11T01:28:18.757Z,92.50
2018-05-11T01:30:46.260Z,92.40
2018-05-11T01:33:13.764Z,92.80
2018-05-11T01:35:41.512Z,93.10
2018-05-11T01:38:08.993Z,92.60
2018-05-11T01:40:36.493Z,92.50
2018-05-11T01:43:03.965Z,92.30
2018-05-11T01:45:31.493Z,92.30
2018-05-11T01:47:59.026Z,92.40
2018-05-11T01:50:26.537Z,92.60
2018-05-11T01:52:54.031Z,92.70
2018-05-11T01:55:23.028Z,92.80
2018-05-11T01:57:50.710Z,92.80
2018-05-11T02:00:18.238Z,92.80
2018-05-11T02:02:46.104Z,92.80
2018-05-11T02:05:13.651Z,92.80
2018-05-11T02:07:41.437Z,93.00
2018-05-11T02:10:09.266Z,93.10
2018-05-11T02:12:37.165Z,92.90
2018-05-11T02:15:04.844Z,92.90
2018-05-11T02:17:32.513Z,92.90
2018-05-11T02:20:00.576Z,93.10
2018-05-11T02:22:28.072Z,92.70
2018-05-11T02:24:55.575Z,92.80
2018-05-11T02:27:23.841Z,92.50
2018-05-11T02:29:52.108Z,92.50
2018-05-11T02:32:20.377Z,92.40
2018-05-11T02:34:47.873Z,92.50
2018-05-11T02:37:15.396Z,92.60
2018-05-11T02:39:42.885Z,92.50
2018-05-11T02:42:10.384Z,92.80
2018-05-11T02:44:37.937Z,92.90
2018-05-11T02:47:05.439Z,92.90
2018-05-11T02:49:33.697Z,92.70
2018-05-11T02:52:01.310Z,92.80
2018-05-11T02:54:28.976Z,92.80
2018-05-11T02:56:56.506Z,92.60
2018-05-11T02:59:24.018Z,92.90
2018-05-11T03:01:51.511Z,92.60
2018-05-11T03:04:18.993Z,92.70
2018-05-11T03:06:46.485Z,92.70
2018-05-11T03:09:14.328Z,92.70
2018-05-11T03:11:42.063Z,92.90
2018-05-11T03:14:10.339Z,93.10
2018-05-11T03:16:38.914Z,92.90
2018-05-11T03:19:07.001Z,92.80
2018-05-11T03:21:34.529Z,92.90
2018-05-11T03:24:02.035Z,93.30
2018-05-11T03:26:29.845Z,93.00
2018-05-11T03:28:57.340Z,93.10
2018-05-11T03:31:24.973Z,93.00
2018-05-11T03:33:52.478Z,93.40
2018-05-11T03:36:19.961Z,93.10
2018-05-11T03:38:47.502Z,93.10
2018-05-11T03:41:15.445Z,93.10
2018-05-11T03:43:42.933Z,93.00
2018-05-11T03:46:10.426Z,93.10
2018-05-11T03:48:38.535Z,93.10
2018-05-11T03:51:06.183Z,93.20
2018-05-11T03:53:33.844Z,93.30
2018-05-11T03:56:01.926Z,93.00
2018-05-11T03:58:29.457Z,93.10
2018-05-11T04:00:57.058Z,93.50
2018-05-11T04:03:36.289Z,93.00
2018-05-11T04:09:05.142Z,93.00
2018-05-11T04:11:32.944Z,93.00
2018-05-11T04:14:00.427Z,93.10
2018-05-11T04:16:28.313Z,92.50
2018-05-11T04:18:55.808Z,92.40
2018-05-11T04:21:23.343Z,92.60
2018-05-11T04:23:51.066Z,92.10
2018-05-11T04:26:18.583Z,92.40
2018-05-11T04:28:46.071Z,92.40
2018-05-11T04:31:13.575Z,92.40
2018-05-11T04:33:41.080Z,91.80
2018-05-11T04:36:09.331Z,91.70
2018-05-11T04:38:36.836Z,91.80
2018-05-11T04:41:04.324Z,91.60
2018-05-11T04:43:31.827Z,91.00
2018-05-11T04:45:59.690Z,90.70
2018-05-11T04:48:27.319Z,90.70
2018-05-11T04:50:54.816Z,90.30
2018-05-11T04:53:22.328Z,89.40
2018-05-11T04:55:49.833Z,89.00
2018-05-11T04:58:18.420Z,87.10
2018-05-11T05:00:45.913Z,87.10
2018-05-11T05:03:14.129Z,87.80
2018-05-11T05:05:42.381Z,85.90
2018-05-11T05:08:09.877Z,85.20
2018-05-11T05:10:37.553Z,85.40
2018-05-11T05:13:05.127Z,83.90
2018-05-11T05:15:32.631Z,85.40
2018-05-11T05:18:00.127Z,83.50
2018-05-11T05:20:27.621Z,84.70
2018-05-11T05:22:55.136Z,84.70
2018-05-11T05:25:23.385Z,84.10
2018-05-11T05:27:50.889Z,84.10
2018-05-11T05:30:18.636Z,85.70
2018-05-11T05:32:46.141Z,84.00
2018-05-11T05:35:13.662Z,86.40
2018-05-11T05:37:41.193Z,83.30
2018-05-11T05:40:08.714Z,83.90
2018-05-11T05:42:36.226Z,84.30
2018-05-11T05:45:03.741Z,84.10
2018-05-11T05:47:31.238Z,84.70
2018-05-11T05:49:58.735Z,83.10
2018-05-11T05:52:26.663Z,82.30
2018-05-11T05:54:54.935Z,82.80
2018-05-11T05:57:22.462Z,82.70
2018-05-11T05:59:50.502Z,81.30
2018-05-11T06:02:17.981Z,82.20
2018-05-11T06:04:45.469Z,82.90
2018-05-11T06:07:13.734Z,82.40
2018-05-11T06:09:41.217Z,83.10
2018-05-11T06:12:09.809Z,82.60
2018-05-11T06:14:37.494Z,82.50
2018-05-11T06:17:05.149Z,82.30
2018-05-11T06:19:32.792Z,82.70
2018-05-11T06:22:00.334Z,83.10
2018-05-11T06:24:28.610Z,82.30
2018-05-11T06:26:56.108Z,82.30
2018-05-11T06:29:23.764Z,81.70
2018-05-11T06:31:51.280Z,81.70
2018-05-11T06:34:19.503Z,79.70
2018-05-11T06:36:47.080Z,81.40
2018-05-11T06:39:14.598Z,81.10
2018-05-11T06:41:42.486Z,80.20
2018-05-11T06:44:09.984Z,79.90
2018-05-11T06:46:37.511Z,78.00
2018-05-11T06:49:05.045Z,77.20
2018-05-11T06:51:33.544Z,78.00
2018-05-11T06:54:01.177Z,79.90
2018-05-11T06:56:28.668Z,79.30
2018-05-11T06:58:56.719Z,76.60
2018-05-11T07:01:24.788Z,76.70
2018-05-11T07:03:52.701Z,75.70
2018-05-11T07:06:20.212Z,75.50
2018-05-11T07:08:47.811Z,76.60
2018-05-11T07:11:15.688Z,76.10
2018-05-11T07:13:43.788Z,76.20
2018-05-11T07:16:12.167Z,75.90
2018-05-11T07:18:39.848Z,75.90
2018-05-11T07:21:08.291Z,75.60
2018-05-11T07:23:36.699Z,75.20
2018-05-11T07:26:04.240Z,75.20
2018-05-11T07:28:31.777Z,73.90
2018-05-11T07:30:59.342Z,73.50
2018-05-11T07:33:26.834Z,73.40
2018-05-11T07:35:54.346Z,73.90
2018-05-11T07:38:22.314Z,74.30
2018-05-11T07:40:49.807Z,73.60
2018-05-11T07:43:18.172Z,72.20
2018-05-11T07:45:45.613Z,72.20
2018-05-11T07:48:13.907Z,72.60
2018-05-11T07:50:41.494Z,72.40
2018-05-11T07:53:09.046Z,72.80
2018-05-11T07:55:37.432Z,72.60
2018-05-11T07:58:05.148Z,72.50
2018-05-11T08:00:32.678Z,70.90
2018-05-11T08:03:00.481Z,69.80
2018-05-11T08:05:27.981Z,69.30
2018-05-11T08:07:55.537Z,70.60
2018-05-11T08:10:23.563Z,68.60
2018-05-11T08:12:51.067Z,68.30
2018-05-11T08:15:18.990Z,68.50
2018-05-11T08:17:46.688Z,68.40
2018-05-11T08:20:14.207Z,68.40
